sensor_id;sensor_type;location;lat;lon;timestamp;temperature;humidity
6581;DHT22;3324;50.796;7.228;2023-01-04T00:01:02;7.90;99.90
6581;DHT22;3324;50.796;7.228;2023-01-04T00:03:28;7.90;99.90
6581;DHT22;3324;50.796;7.228;2023-01-04T00:05:58;7.90;99.90
6581;DHT22;3324;50.796;7.228;2023-01-04T00:08:24;8.00;99.90
6581;DHT22;3324;50.796;7.228;2023-01-04T00:10:49;8.10;99.90
6581;DHT22;3324;50.796;7.228;2023-01-04T00:13:15;8.20;99.90
6581;DHT22;3324;50.796;7.228;2023-01-04T00:15:40;8.20;99.90
6581;DHT22;3324;50.796;7.228;2023-01-04T00:18:07;8.20;99.90
6581;DHT22;3324;50.796;7.228;2023-01-04T00:20:32;8.20;99.90
6581;DHT22;3324;50.796;7.228;2023-01-04T00:22:58;8.20;99.90
6581;DHT22;3324;50.796;7.228;2023-01-04T00:25:24;8.20;99.90
6581;DHT22;3324;50.796;7.228;2023-01-04T00:27:50;8.20;99.90
6581;DHT22;3324;50.796;7.228;2023-01-04T00:30:16;8.10;99.90
6581;DHT22;3324;50.796;7.228;2023-01-04T00:32:42;8.10;99.90
6581;DHT22;3324;50.796;7.228;2023-01-04T00:35:09;8.10;99.90
6581;DHT22;3324;50.796;7.228;2023-01-04T00:37:34;8.10;99.90
6581;DHT22;3324;50.796;7.228;2023-01-04T00:40:00;8.20;99.90
6581;DHT22;3324;50.796;7.228;2023-01-04T00:42:25;8.10;99.90
6581;DHT22;3324;50.796;7.228;2023-01-04T00:44:51;8.20;99.90
6581;DHT22;3324;50.796;7.228;2023-01-04T00:47:17;8.10;99.90
6581;DHT22;3324;50.796;7.228;2023-01-04T00:49:42;8.10;99.90
6581;DHT22;3324;50.796;7.228;2023-01-04T00:52:08;8.10;99.90
6581;DHT22;3324;50.796;7.228;2023-01-04T00:54:34;8.10;99.90
6581;DHT22;3324;50.796;7.228;2023-01-04T00:57:00;8.20;99.90
6581;DHT22;3324;50.796;7.228;2023-01-04T00:59:26;8.20;99.90
6581;DHT22;3324;50.796;7.228;2023-01-04T01:01:52;8.30;99.90
6581;DHT22;3324;50.796;7.228;2023-01-04T01:04:20;8.30;99.90
6581;DHT22;3324;50.796;7.228;2023-01-04T01:06:46;8.20;99.90
6581;DHT22;3324;50.796;7.228;2023-01-04T01:09:11;8.40;99.90
6581;DHT22;3324;50.796;7.228;2023-01-04T01:11:37;8.40;99.90
6581;DHT22;3324;50.796;7.228;2023-01-04T01:14:05;8.40;99.90
6581;DHT22;3324;50.796;7.228;2023-01-04T01:16:31;8.50;99.90
6581;DHT22;3324;50.796;7.228;2023-01-04T01:18:56;8.60;99.90
6581;DHT22;3324;50.796;7.228;2023-01-04T01:21:24;8.60;99.90
6581;DHT22;3324;50.796;7.228;2023-01-04T01:23:53;8.80;99.90
6581;DHT22;3324;50.796;7.228;2023-01-04T01:26:21;8.80;99.90
6581;DHT22;3324;50.796;7.228;2023-01-04T01:28:47;9.00;99.90
6581;DHT22;3324;50.796;7.228;2023-01-04T01:31:17;9.10;99.90
6581;DHT22;3324;50.796;7.228;2023-01-04T01:33:44;9.20;99.90
6581;DHT22;3324;50.796;7.228;2023-01-04T01:36:11;9.20;99.90
6581;DHT22;3324;50.796;7.228;2023-01-04T01:38:38;9.30;99.90
6581;DHT22;3324;50.796;7.228;2023-01-04T01:41:05;9.30;99.90
6581;DHT22;3324;50.796;7.228;2023-01-04T01:43:55;9.30;99.90
6581;DHT22;3324;50.796;7.228;2023-01-04T01:51:51;9.30;99.90
6581;DHT22;3324;50.796;7.228;2023-01-04T01:54:22;9.40;99.90
6581;DHT22;3324;50.796;7.228;2023-01-04T01:56:55;9.40;99.90
6581;DHT22;3324;50.796;7.228;2023-01-04T01:59:22;9.40;99.90
6581;DHT22;3324;50.796;7.228;2023-01-04T02:01:49;9.40;99.90
6581;DHT22;3324;50.796;7.228;2023-01-04T02:04:15;9.40;99.90
6581;DHT22;3324;50.796;7.228;2023-01-04T02:06:47;9.40;99.90
6581;DHT22;3324;50.796;7.228;2023-01-04T02:09:14;9.30;99.90
6581;DHT22;3324;50.796;7.228;2023-01-04T02:11:41;9.30;99.90
6581;DHT22;3324;50.796;7.228;2023-01-04T02:14:08;9.40;99.90
6581;DHT22;3324;50.796;7.228;2023-01-04T02:17:13;9.30;99.90
6581;DHT22;3324;50.796;7.228;2023-01-04T02:22:19;9.20;99.90
6581;DHT22;3324;50.796;7.228;2023-01-04T02:28:08;9.10;99.90
6581;DHT22;3324;50.796;7.228;2023-01-04T02:42:18;9.10;99.90
6581;DHT22;3324;50.796;7.228;2023-01-04T02:44:59;9.10;99.90
6581;DHT22;3324;50.796;7.228;2023-01-04T02:47:31;9.10;99.90
6581;DHT22;3324;50.796;7.228;2023-01-04T02:53:10;9.30;99.90
6581;DHT22;3324;50.796;7.228;2023-01-04T02:55:53;9.20;99.90
6581;DHT22;3324;50.796;7.228;2023-01-04T03:07:10;9.30;99.90
6581;DHT22;3324;50.796;7.228;2023-01-04T03:09:39;9.40;99.90
6581;DHT22;3324;50.796;7.228;2023-01-04T03:12:14;9.40;99.90
6581;DHT22;3324;50.796;7.228;2023-01-04T03:15:05;9.50;99.90
6581;DHT22;3324;50.796;7.228;2023-01-04T03:17:40;9.50;99.90
6581;DHT22;3324;50.796;7.228;2023-01-04T03:20:09;9.50;99.90
6581;DHT22;3324;50.796;7.228;2023-01-04T03:22:39;9.50;99.90
6581;DHT22;3324;50.796;7.228;2023-01-04T03:25:28;9.60;99.90
6581;DHT22;3324;50.796;7.228;2023-01-04T03:28:14;9.60;99.90
6581;DHT22;3324;50.796;7.228;2023-01-04T03:31:16;9.60;99.90
6581;DHT22;3324;50.796;7.228;2023-01-04T03:34:03;9.60;99.90
6581;DHT22;3324;50.796;7.228;2023-01-04T03:40:24;9.70;99.90
6581;DHT22;3324;50.796;7.228;2023-01-04T03:43:21;9.70;99.90
6581;DHT22;3324;50.796;7.228;2023-01-04T03:46:18;9.80;99.90
6581;DHT22;3324;50.796;7.228;2023-01-04T03:51:36;9.80;99.90
6581;DHT22;3324;50.796;7.228;2023-01-04T03:54:13;9.90;99.90
6581;DHT22;3324;50.796;7.228;2023-01-04T03:56:41;9.80;99.90
6581;DHT22;3324;50.796;7.228;2023-01-04T03:59:09;9.80;99.90
6581;DHT22;3324;50.796;7.228;2023-01-04T04:01:35;9.80;99.90
6581;DHT22;3324;50.796;7.228;2023-01-04T04:04:01;9.80;99.90
6581;DHT22;3324;50.796;7.228;2023-01-04T04:06:45;9.90;99.90
6581;DHT22;3324;50.796;7.228;2023-01-04T04:09:30;9.90;99.90
6581;DHT22;3324;50.796;7.228;2023-01-04T04:11:56;9.90;99.90
6581;DHT22;3324;50.796;7.228;2023-01-04T04:14:21;9.90;99.90
6581;DHT22;3324;50.796;7.228;2023-01-04T04:16:47;10.00;99.90
6581;DHT22;3324;50.796;7.228;2023-01-04T04:19:13;10.00;99.90
6581;DHT22;3324;50.796;7.228;2023-01-04T04:21:38;10.10;99.90
6581;DHT22;3324;50.796;7.228;2023-01-04T04:24:04;10.00;99.90
6581;DHT22;3324;50.796;7.228;2023-01-04T04:26:30;10.00;99.90
6581;DHT22;3324;50.796;7.228;2023-01-04T04:28:56;10.10;99.90
6581;DHT22;3324;50.796;7.228;2023-01-04T04:31:21;10.10;99.90
6581;DHT22;3324;50.796;7.228;2023-01-04T04:33:47;10.10;99.90
6581;DHT22;3324;50.796;7.228;2023-01-04T04:36:12;10.10;99.90
6581;DHT22;3324;50.796;7.228;2023-01-04T04:38:38;10.10;99.90
6581;DHT22;3324;50.796;7.228;2023-01-04T04:41:08;10.10;99.90
6581;DHT22;3324;50.796;7.228;2023-01-04T04:43:53;10.10;99.90
6581;DHT22;3324;50.796;7.228;2023-01-04T04:46:19;10.00;99.90
6581;DHT22;3324;50.796;7.228;2023-01-04T04:48:45;10.00;99.90
6581;DHT22;3324;50.796;7.228;2023-01-04T04:51:10;10.00;99.90
6581;DHT22;3324;50.796;7.228;2023-01-04T04:53:36;9.90;99.90
6581;DHT22;3324;50.796;7.228;2023-01-04T04:56:01;9.90;99.90
6581;DHT22;3324;50.796;7.228;2023-01-04T04:58:27;10.00;99.90
6581;DHT22;3324;50.796;7.228;2023-01-04T05:00:53;9.90;99.90
6581;DHT22;3324;50.796;7.228;2023-01-04T05:03:18;9.90;99.90
6581;DHT22;3324;50.796;7.228;2023-01-04T05:05:44;9.90;99.90
6581;DHT22;3324;50.796;7.228;2023-01-04T05:08:09;9.90;99.90
6581;DHT22;3324;50.796;7.228;2023-01-04T05:10:36;9.90;99.90
6581;DHT22;3324;50.796;7.228;2023-01-04T05:13:02;9.90;99.90
6581;DHT22;3324;50.796;7.228;2023-01-04T05:15:38;9.90;99.90
6581;DHT22;3324;50.796;7.228;2023-01-04T05:18:05;9.90;99.90
6581;DHT22;3324;50.796;7.228;2023-01-04T05:20:31;9.90;99.90
6581;DHT22;3324;50.796;7.228;2023-01-04T05:22:57;10.00;99.90
6581;DHT22;3324;50.796;7.228;2023-01-04T05:25:23;10.00;99.90
6581;DHT22;3324;50.796;7.228;2023-01-04T05:27:48;10.00;99.90
6581;DHT22;3324;50.796;7.228;2023-01-04T05:30:15;10.10;99.90
6581;DHT22;3324;50.796;7.228;2023-01-04T05:33:00;10.10;99.90
6581;DHT22;3324;50.796;7.228;2023-01-04T05:35:26;10.20;99.90
6581;DHT22;3324;50.796;7.228;2023-01-04T05:37:52;10.20;99.90
6581;DHT22;3324;50.796;7.228;2023-01-04T05:40:18;10.20;99.90
6581;DHT22;3324;50.796;7.228;2023-01-04T05:42:44;10.20;99.90
6581;DHT22;3324;50.796;7.228;2023-01-04T05:45:09;10.30;99.90
6581;DHT22;3324;50.796;7.228;2023-01-04T05:47:35;10.30;99.90
6581;DHT22;3324;50.796;7.228;2023-01-04T05:50:01;10.30;99.90
6581;DHT22;3324;50.796;7.228;2023-01-04T05:52:27;10.30;99.90
6581;DHT22;3324;50.796;7.228;2023-01-04T05:54:53;10.20;99.90
6581;DHT22;3324;50.796;7.228;2023-01-04T05:57:18;10.30;99.90
6581;DHT22;3324;50.796;7.228;2023-01-04T05:59:44;10.30;99.90
6581;DHT22;3324;50.796;7.228;2023-01-04T06:02:29;10.30;99.90
6581;DHT22;3324;50.796;7.228;2023-01-04T06:04:55;10.30;99.90
6581;DHT22;3324;50.796;7.228;2023-01-04T06:07:21;10.30;99.90
6581;DHT22;3324;50.796;7.228;2023-01-04T06:09:47;10.30;99.90
6581;DHT22;3324;50.796;7.228;2023-01-04T06:12:12;10.40;99.90
6581;DHT22;3324;50.796;7.228;2023-01-04T06:14:38;10.40;99.90
6581;DHT22;3324;50.796;7.228;2023-01-04T06:17:04;10.40;99.90
6581;DHT22;3324;50.796;7.228;2023-01-04T06:19:30;10.40;99.90
6581;DHT22;3324;50.796;7.228;2023-01-04T06:21:56;10.40;99.90
6581;DHT22;3324;50.796;7.228;2023-01-04T06:24:22;10.40;99.90
6581;DHT22;3324;50.796;7.228;2023-01-04T06:26:48;10.40;99.90
6581;DHT22;3324;50.796;7.228;2023-01-04T06:29:14;10.50;99.90
6581;DHT22;3324;50.796;7.228;2023-01-04T06:31:39;10.50;99.90
6581;DHT22;3324;50.796;7.228;2023-01-04T06:34:05;10.50;99.90
6581;DHT22;3324;50.796;7.228;2023-01-04T06:36:31;10.50;99.90
6581;DHT22;3324;50.796;7.228;2023-01-04T06:38:57;10.50;99.90
6581;DHT22;3324;50.796;7.228;2023-01-04T06:41:23;10.50;99.90
6581;DHT22;3324;50.796;7.228;2023-01-04T06:43:49;10.50;99.90
6581;DHT22;3324;50.796;7.228;2023-01-04T06:46:15;10.50;99.90
6581;DHT22;3324;50.796;7.228;2023-01-04T06:48:40;10.60;99.90
6581;DHT22;3324;50.796;7.228;2023-01-04T06:51:06;10.60;99.90
6581;DHT22;3324;50.796;7.228;2023-01-04T06:53:32;10.70;99.90
6581;DHT22;3324;50.796;7.228;2023-01-04T06:55:57;10.70;99.90
6581;DHT22;3324;50.796;7.228;2023-01-04T06:58:23;10.70;99.90
6581;DHT22;3324;50.796;7.228;2023-01-04T07:00:52;10.70;99.90
6581;DHT22;3324;50.796;7.228;2023-01-04T07:03:18;10.70;99.90
6581;DHT22;3324;50.796;7.228;2023-01-04T07:05:44;10.70;99.90
6581;DHT22;3324;50.796;7.228;2023-01-04T07:08:10;10.70;99.90
6581;DHT22;3324;50.796;7.228;2023-01-04T07:10:37;10.70;99.90
6581;DHT22;3324;50.796;7.228;2023-01-04T07:13:02;10.70;99.90
6581;DHT22;3324;50.796;7.228;2023-01-04T07:15:28;10.60;99.90
6581;DHT22;3324;50.796;7.228;2023-01-04T07:17:54;10.70;99.90
6581;DHT22;3324;50.796;7.228;2023-01-04T07:20:19;10.60;99.90
6581;DHT22;3324;50.796;7.228;2023-01-04T07:22:45;10.70;99.90
6581;DHT22;3324;50.796;7.228;2023-01-04T07:25:10;10.70;99.90
6581;DHT22;3324;50.796;7.228;2023-01-04T07:27:36;10.70;99.90
6581;DHT22;3324;50.796;7.228;2023-01-04T07:30:02;10.70;99.90
6581;DHT22;3324;50.796;7.228;2023-01-04T07:32:28;10.70;99.90
6581;DHT22;3324;50.796;7.228;2023-01-04T07:34:53;10.70;99.90
6581;DHT22;3324;50.796;7.228;2023-01-04T07:37:19;10.70;99.90
6581;DHT22;3324;50.796;7.228;2023-01-04T07:39:44;10.70;99.90
6581;DHT22;3324;50.796;7.228;2023-01-04T07:42:11;10.70;99.90
6581;DHT22;3324;50.796;7.228;2023-01-04T07:44:36;10.80;99.90
6581;DHT22;3324;50.796;7.228;2023-01-04T07:47:02;10.80;99.90
6581;DHT22;3324;50.796;7.228;2023-01-04T07:49:28;10.70;99.90
6581;DHT22;3324;50.796;7.228;2023-01-04T07:51:54;10.80;99.90
6581;DHT22;3324;50.796;7.228;2023-01-04T07:54:20;10.80;99.90
6581;DHT22;3324;50.796;7.228;2023-01-04T07:56:46;10.80;99.90
6581;DHT22;3324;50.796;7.228;2023-01-04T07:59:14;10.80;99.90
6581;DHT22;3324;50.796;7.228;2023-01-04T08:01:40;10.80;99.90
6581;DHT22;3324;50.796;7.228;2023-01-04T08:04:07;10.80;99.90
6581;DHT22;3324;50.796;7.228;2023-01-04T08:06:34;10.80;99.90
6581;DHT22;3324;50.796;7.228;2023-01-04T08:09:01;10.90;99.90
6581;DHT22;3324;50.796;7.228;2023-01-04T08:11:27;10.80;99.90
6581;DHT22;3324;50.796;7.228;2023-01-04T08:13:52;10.90;99.90
6581;DHT22;3324;50.796;7.228;2023-01-04T08:16:25;10.80;99.90
6581;DHT22;3324;50.796;7.228;2023-01-04T08:18:59;10.90;99.90
6581;DHT22;3324;50.796;7.228;2023-01-04T08:21:26;10.90;99.90
6581;DHT22;3324;50.796;7.228;2023-01-04T08:23:52;10.90;99.90
6581;DHT22;3324;50.796;7.228;2023-01-04T08:26:19;10.90;99.90
6581;DHT22;3324;50.796;7.228;2023-01-04T08:28:46;11.00;99.90
6581;DHT22;3324;50.796;7.228;2023-01-04T08:31:20;11.00;99.90
6581;DHT22;3324;50.796;7.228;2023-01-04T08:33:47;11.00;99.90
6581;DHT22;3324;50.796;7.228;2023-01-04T08:36:21;11.00;99.90
6581;DHT22;3324;50.796;7.228;2023-01-04T08:38:48;11.00;99.90
6581;DHT22;3324;50.796;7.228;2023-01-04T08:41:15;11.00;99.90
6581;DHT22;3324;50.796;7.228;2023-01-04T08:43:41;11.00;99.90
6581;DHT22;3324;50.796;7.228;2023-01-04T08:46:07;11.00;99.90
6581;DHT22;3324;50.796;7.228;2023-01-04T08:48:34;11.00;99.90
6581;DHT22;3324;50.796;7.228;2023-01-04T08:51:00;11.00;99.90
6581;DHT22;3324;50.796;7.228;2023-01-04T08:53:27;11.10;99.90
6581;DHT22;3324;50.796;7.228;2023-01-04T08:55:53;11.10;99.90
6581;DHT22;3324;50.796;7.228;2023-01-04T08:58:20;11.10;99.90
6581;DHT22;3324;50.796;7.228;2023-01-04T09:00:46;11.10;99.90
6581;DHT22;3324;50.796;7.228;2023-01-04T09:03:12;11.10;99.90
6581;DHT22;3324;50.796;7.228;2023-01-04T09:05:38;11.10;99.90
6581;DHT22;3324;50.796;7.228;2023-01-04T09:08:04;11.10;99.90
6581;DHT22;3324;50.796;7.228;2023-01-04T09:10:30;11.20;99.90
6581;DHT22;3324;50.796;7.228;2023-01-04T09:12:55;11.20;99.90
6581;DHT22;3324;50.796;7.228;2023-01-04T09:15:21;11.20;99.90
6581;DHT22;3324;50.796;7.228;2023-01-04T09:17:49;11.30;99.90
6581;DHT22;3324;50.796;7.228;2023-01-04T09:20:14;11.30;99.90
6581;DHT22;3324;50.796;7.228;2023-01-04T09:22:40;11.30;99.90
6581;DHT22;3324;50.796;7.228;2023-01-04T09:25:06;11.30;99.90
6581;DHT22;3324;50.796;7.228;2023-01-04T09:27:32;11.30;99.90
6581;DHT22;3324;50.796;7.228;2023-01-04T09:29:58;11.40;99.90
6581;DHT22;3324;50.796;7.228;2023-01-04T09:32:23;11.40;99.90
6581;DHT22;3324;50.796;7.228;2023-01-04T09:34:49;11.40;99.90
6581;DHT22;3324;50.796;7.228;2023-01-04T09:37:14;11.50;99.90
6581;DHT22;3324;50.796;7.228;2023-01-04T09:39:40;11.50;99.90
6581;DHT22;3324;50.796;7.228;2023-01-04T09:42:27;11.60;99.90
6581;DHT22;3324;50.796;7.228;2023-01-04T09:44:58;11.60;99.90
6581;DHT22;3324;50.796;7.228;2023-01-04T09:47:42;11.70;99.90
6581;DHT22;3324;50.796;7.228;2023-01-04T09:50:31;11.80;99.90
6581;DHT22;3324;50.796;7.228;2023-01-04T09:55:41;11.90;99.90
6581;DHT22;3324;50.796;7.228;2023-01-04T09:58:29;11.90;99.90
6581;DHT22;3324;50.796;7.228;2023-01-04T10:01:23;12.00;99.90
6581;DHT22;3324;50.796;7.228;2023-01-04T10:06:20;12.10;99.90
6581;DHT22;3324;50.796;7.228;2023-01-04T10:08:46;12.10;99.90
6581;DHT22;3324;50.796;7.228;2023-01-04T10:14:12;12.20;99.90
6581;DHT22;3324;50.796;7.228;2023-01-04T10:17:19;12.20;99.90
6581;DHT22;3324;50.796;7.228;2023-01-04T10:25:54;12.30;99.90
6581;DHT22;3324;50.796;7.228;2023-01-04T10:34:16;12.40;99.90
6581;DHT22;3324;50.796;7.228;2023-01-04T10:36:47;12.40;99.90
6581;DHT22;3324;50.796;7.228;2023-01-04T10:39:20;12.50;99.90
6581;DHT22;3324;50.796;7.228;2023-01-04T10:41:57;12.50;99.90
6581;DHT22;3324;50.796;7.228;2023-01-04T10:44:39;12.50;99.90
6581;DHT22;3324;50.796;7.228;2023-01-04T10:49:42;12.60;99.90
6581;DHT22;3324;50.796;7.228;2023-01-04T10:52:19;12.60;99.90
6581;DHT22;3324;50.796;7.228;2023-01-04T10:55:02;12.60;99.90
6581;DHT22;3324;50.796;7.228;2023-01-04T10:57:39;12.60;99.90
6581;DHT22;3324;50.796;7.228;2023-01-04T11:00:27;12.60;99.90
6581;DHT22;3324;50.796;7.228;2023-01-04T11:03:15;12.70;99.90
6581;DHT22;3324;50.796;7.228;2023-01-04T11:06:14;12.60;99.90
6581;DHT22;3324;50.796;7.228;2023-01-04T11:08:55;12.60;99.90
6581;DHT22;3324;50.796;7.228;2023-01-04T11:11:49;12.60;99.90
6581;DHT22;3324;50.796;7.228;2023-01-04T11:14:15;12.60;99.90
6581;DHT22;3324;50.796;7.228;2023-01-04T11:16:50;12.70;99.90
6581;DHT22;3324;50.796;7.228;2023-01-04T11:19:17;12.70;99.90
6581;DHT22;3324;50.796;7.228;2023-01-04T11:21:47;12.70;99.90
6581;DHT22;3324;50.796;7.228;2023-01-04T11:24:15;12.70;99.90
6581;DHT22;3324;50.796;7.228;2023-01-04T11:26:42;12.70;99.90
6581;DHT22;3324;50.796;7.228;2023-01-04T11:34:50;12.70;99.90
6581;DHT22;3324;50.796;7.228;2023-01-04T11:37:32;12.70;99.90
6581;DHT22;3324;50.796;7.228;2023-01-04T11:40:27;12.60;99.90
6581;DHT22;3324;50.796;7.228;2023-01-04T11:43:18;12.60;99.90
6581;DHT22;3324;50.796;7.228;2023-01-04T11:48:40;12.50;99.90
6581;DHT22;3324;50.796;7.228;2023-01-04T11:56:38;12.50;99.90
6581;DHT22;3324;50.796;7.228;2023-01-04T11:59:14;12.60;99.90
6581;DHT22;3324;50.796;7.228;2023-01-04T12:01:44;12.60;99.90
6581;DHT22;3324;50.796;7.228;2023-01-04T12:04:21;12.60;99.90
6581;DHT22;3324;50.796;7.228;2023-01-04T12:06:58;12.60;99.90
6581;DHT22;3324;50.796;7.228;2023-01-04T12:09:24;12.60;99.90
6581;DHT22;3324;50.796;7.228;2023-01-04T12:11:52;12.60;99.90
6581;DHT22;3324;50.796;7.228;2023-01-04T12:14:31;12.60;99.90
6581;DHT22;3324;50.796;7.228;2023-01-04T12:17:05;12.60;99.90
6581;DHT22;3324;50.796;7.228;2023-01-04T12:19:33;12.60;99.90
6581;DHT22;3324;50.796;7.228;2023-01-04T12:22:01;12.60;99.90
6581;DHT22;3324;50.796;7.228;2023-01-04T12:24:31;12.60;99.90
6581;DHT22;3324;50.796;7.228;2023-01-04T12:26:59;12.60;99.90
6581;DHT22;3324;50.796;7.228;2023-01-04T12:29:39;12.60;99.90
6581;DHT22;3324;50.796;7.228;2023-01-04T12:36:59;12.80;99.90
6581;DHT22;3324;50.796;7.228;2023-01-04T12:39:42;12.80;99.90
6581;DHT22;3324;50.796;7.228;2023-01-04T12:42:15;12.80;99.90
6581;DHT22;3324;50.796;7.228;2023-01-04T12:54:56;12.60;99.90
6581;DHT22;3324;50.796;7.228;2023-01-04T12:57:24;12.60;99.90
6581;DHT22;3324;50.796;7.228;2023-01-04T13:00:07;12.60;99.90
6581;DHT22;3324;50.796;7.228;2023-01-04T13:02:34;12.60;99.90
6581;DHT22;3324;50.796;7.228;2023-01-04T13:05:44;12.60;99.90
6581;DHT22;3324;50.796;7.228;2023-01-04T13:07:59;12.70;99.90
6581;DHT22;3324;50.796;7.228;2023-01-04T13:10:50;12.70;99.90
6581;DHT22;3324;50.796;7.228;2023-01-04T13:19:00;12.80;99.90
6581;DHT22;3324;50.796;7.228;2023-01-04T13:21:37;12.80;99.90
6581;DHT22;3324;50.796;7.228;2023-01-04T13:24:14;12.90;99.90
6581;DHT22;3324;50.796;7.228;2023-01-04T13:26:43;12.90;99.90
6581;DHT22;3324;50.796;7.228;2023-01-04T13:31:58;12.90;99.90
6581;DHT22;3324;50.796;7.228;2023-01-04T13:35:09;13.00;99.90
6581;DHT22;3324;50.796;7.228;2023-01-04T13:37:45;13.00;99.90
6581;DHT22;3324;50.796;7.228;2023-01-04T13:40:28;13.00;99.90
6581;DHT22;3324;50.796;7.228;2023-01-04T13:45:31;13.10;99.90
6581;DHT22;3324;50.796;7.228;2023-01-04T13:48:01;13.10;99.90
6581;DHT22;3324;50.796;7.228;2023-01-04T13:50:43;13.20;99.90
6581;DHT22;3324;50.796;7.228;2023-01-04T13:53:23;13.20;99.90
6581;DHT22;3324;50.796;7.228;2023-01-04T13:55:58;13.20;99.90
6581;DHT22;3324;50.796;7.228;2023-01-04T13:58:29;13.30;99.90
6581;DHT22;3324;50.796;7.228;2023-01-04T14:06:23;13.40;99.90
6581;DHT22;3324;50.796;7.228;2023-01-04T14:11:21;13.30;99.90
6581;DHT22;3324;50.796;7.228;2023-01-04T14:14:31;13.30;99.90
6581;DHT22;3324;50.796;7.228;2023-01-04T14:22:40;13.40;99.90
6581;DHT22;3324;50.796;7.228;2023-01-04T14:33:32;13.40;99.90
6581;DHT22;3324;50.796;7.228;2023-01-04T14:36:27;13.50;99.90
6581;DHT22;3324;50.796;7.228;2023-01-04T14:39:09;13.50;99.90
6581;DHT22;3324;50.796;7.228;2023-01-04T14:41:41;13.50;99.90
6581;DHT22;3324;50.796;7.228;2023-01-04T14:44:10;13.50;99.90
6581;DHT22;3324;50.796;7.228;2023-01-04T14:46:36;13.50;99.90
6581;DHT22;3324;50.796;7.228;2023-01-04T14:49:02;13.50;99.90
6581;DHT22;3324;50.796;7.228;2023-01-04T14:53:53;13.60;99.90
6581;DHT22;3324;50.796;7.228;2023-01-04T14:56:19;13.60;99.90
6581;DHT22;3324;50.796;7.228;2023-01-04T14:58:45;13.60;99.90
6581;DHT22;3324;50.796;7.228;2023-01-04T15:01:11;13.60;99.90
6581;DHT22;3324;50.796;7.228;2023-01-04T15:03:37;13.70;99.90
6581;DHT22;3324;50.796;7.228;2023-01-04T15:06:03;13.70;99.90
6581;DHT22;3324;50.796;7.228;2023-01-04T15:08:29;13.70;99.90
6581;DHT22;3324;50.796;7.228;2023-01-04T15:10:55;13.70;99.90
6581;DHT22;3324;50.796;7.228;2023-01-04T15:13:20;13.70;99.90
6581;DHT22;3324;50.796;7.228;2023-01-04T15:15:46;13.70;99.90
6581;DHT22;3324;50.796;7.228;2023-01-04T15:18:12;13.70;99.90
6581;DHT22;3324;50.796;7.228;2023-01-04T15:20:39;13.70;99.90
6581;DHT22;3324;50.796;7.228;2023-01-04T15:23:05;13.70;99.90
6581;DHT22;3324;50.796;7.228;2023-01-04T15:25:30;13.70;99.90
6581;DHT22;3324;50.796;7.228;2023-01-04T15:27:56;13.70;99.90
6581;DHT22;3324;50.796;7.228;2023-01-04T15:30:22;13.70;99.90
6581;DHT22;3324;50.796;7.228;2023-01-04T15:32:48;13.70;99.90
6581;DHT22;3324;50.796;7.228;2023-01-04T15:35:14;13.70;99.90
6581;DHT22;3324;50.796;7.228;2023-01-04T15:37:45;13.60;99.90
6581;DHT22;3324;50.796;7.228;2023-01-04T15:40:13;13.60;99.90
6581;DHT22;3324;50.796;7.228;2023-01-04T15:42:39;13.50;99.90
6581;DHT22;3324;50.796;7.228;2023-01-04T15:45:23;13.40;99.90
6581;DHT22;3324;50.796;7.228;2023-01-04T15:47:50;13.40;99.90
6581;DHT22;3324;50.796;7.228;2023-01-04T15:50:17;13.30;99.90
6581;DHT22;3324;50.796;7.228;2023-01-04T15:52:42;13.30;99.90
6581;DHT22;3324;50.796;7.228;2023-01-04T15:55:08;13.40;99.90
6581;DHT22;3324;50.796;7.228;2023-01-04T15:57:34;13.50;99.90
6581;DHT22;3324;50.796;7.228;2023-01-04T15:59:59;13.50;99.90
6581;DHT22;3324;50.796;7.228;2023-01-04T16:02:25;13.60;99.90
6581;DHT22;3324;50.796;7.228;2023-01-04T16:04:51;13.60;99.90
6581;DHT22;3324;50.796;7.228;2023-01-04T16:07:17;13.60;99.90
6581;DHT22;3324;50.796;7.228;2023-01-04T16:09:43;13.60;99.90
6581;DHT22;3324;50.796;7.228;2023-01-04T16:12:08;13.60;99.90
6581;DHT22;3324;50.796;7.228;2023-01-04T16:14:52;13.60;99.90
6581;DHT22;3324;50.796;7.228;2023-01-04T16:17:18;13.60;99.90
6581;DHT22;3324;50.796;7.228;2023-01-04T16:19:44;13.60;99.90
6581;DHT22;3324;50.796;7.228;2023-01-04T16:22:09;13.60;99.90
6581;DHT22;3324;50.796;7.228;2023-01-04T16:24:35;13.60;99.90
6581;DHT22;3324;50.796;7.228;2023-01-04T16:27:01;13.60;99.90
6581;DHT22;3324;50.796;7.228;2023-01-04T16:29:26;13.50;99.90
6581;DHT22;3324;50.796;7.228;2023-01-04T16:31:52;13.40;99.90
6581;DHT22;3324;50.796;7.228;2023-01-04T16:34:18;13.30;99.90
6581;DHT22;3324;50.796;7.228;2023-01-04T16:36:43;13.30;99.90
6581;DHT22;3324;50.796;7.228;2023-01-04T16:39:09;13.30;99.90
6581;DHT22;3324;50.796;7.228;2023-01-04T16:41:34;13.30;99.90
6581;DHT22;3324;50.796;7.228;2023-01-04T16:44:03;13.30;99.90
6581;DHT22;3324;50.796;7.228;2023-01-04T16:46:31;13.40;99.90
6581;DHT22;3324;50.796;7.228;2023-01-04T16:49:00;13.40;99.90
6581;DHT22;3324;50.796;7.228;2023-01-04T16:51:27;13.40;99.90
6581;DHT22;3324;50.796;7.228;2023-01-04T16:53:53;13.40;99.90
6581;DHT22;3324;50.796;7.228;2023-01-04T16:56:20;13.40;99.90
6581;DHT22;3324;50.796;7.228;2023-01-04T16:58:47;13.40;99.90
6581;DHT22;3324;50.796;7.228;2023-01-04T17:03:41;13.30;99.90
6581;DHT22;3324;50.796;7.228;2023-01-04T17:06:10;13.20;99.90
6581;DHT22;3324;50.796;7.228;2023-01-04T17:08:36;13.20;99.90
6581;DHT22;3324;50.796;7.228;2023-01-04T17:11:07;13.10;99.90
6581;DHT22;3324;50.796;7.228;2023-01-04T17:13:33;13.00;99.90
6581;DHT22;3324;50.796;7.228;2023-01-04T17:15:59;13.00;99.90
6581;DHT22;3324;50.796;7.228;2023-01-04T17:18:25;13.00;99.90
6581;DHT22;3324;50.796;7.228;2023-01-04T17:20:59;13.00;99.90
6581;DHT22;3324;50.796;7.228;2023-01-04T17:23:25;12.90;99.90
6581;DHT22;3324;50.796;7.228;2023-01-04T17:25:53;12.80;99.90
6581;DHT22;3324;50.796;7.228;2023-01-04T17:28:19;12.90;99.90
6581;DHT22;3324;50.796;7.228;2023-01-04T17:30:45;12.80;99.90
6581;DHT22;3324;50.796;7.228;2023-01-04T17:33:10;12.80;99.90
6581;DHT22;3324;50.796;7.228;2023-01-04T17:35:38;12.80;99.90
6581;DHT22;3324;50.796;7.228;2023-01-04T17:38:04;12.70;99.90
6581;DHT22;3324;50.796;7.228;2023-01-04T17:40:30;12.70;99.90
6581;DHT22;3324;50.796;7.228;2023-01-04T17:42:57;12.70;99.90
6581;DHT22;3324;50.796;7.228;2023-01-04T17:45:22;12.70;99.90
6581;DHT22;3324;50.796;7.228;2023-01-04T17:47:48;12.60;99.90
6581;DHT22;3324;50.796;7.228;2023-01-04T17:50:14;12.60;99.90
6581;DHT22;3324;50.796;7.228;2023-01-04T17:52:40;12.60;99.90
6581;DHT22;3324;50.796;7.228;2023-01-04T17:55:06;12.60;99.90
6581;DHT22;3324;50.796;7.228;2023-01-04T17:57:32;12.60;99.90
6581;DHT22;3324;50.796;7.228;2023-01-04T17:59:59;12.60;99.90
6581;DHT22;3324;50.796;7.228;2023-01-04T18:02:25;12.60;99.90
6581;DHT22;3324;50.796;7.228;2023-01-04T18:04:51;12.70;99.90
6581;DHT22;3324;50.796;7.228;2023-01-04T18:07:17;12.70;99.90
6581;DHT22;3324;50.796;7.228;2023-01-04T18:09:53;12.70;99.90
6581;DHT22;3324;50.796;7.228;2023-01-04T18:12:19;12.80;99.90
6581;DHT22;3324;50.796;7.228;2023-01-04T18:14:46;12.80;99.90
6581;DHT22;3324;50.796;7.228;2023-01-04T18:17:12;12.80;99.90
6581;DHT22;3324;50.796;7.228;2023-01-04T18:19:38;12.80;99.90
6581;DHT22;3324;50.796;7.228;2023-01-04T18:22:04;12.80;99.90
6581;DHT22;3324;50.796;7.228;2023-01-04T18:24:30;12.70;99.90
6581;DHT22;3324;50.796;7.228;2023-01-04T18:26:56;12.80;99.90
6581;DHT22;3324;50.796;7.228;2023-01-04T18:29:24;12.80;99.90
6581;DHT22;3324;50.796;7.228;2023-01-04T18:31:49;12.80;99.90